createdAt,value
2022-10-23T09:22:00.538Z,25.7
2022-10-23T09:23:17.494Z,25.7
2022-10-23T09:24:34.469Z,26
2022-10-23T09:25:51.629Z,26.4
2022-10-23T09:27:08.558Z,26.6
2022-10-23T09:28:25.473Z,27
2022-10-23T09:29:42.482Z,27.2
2022-10-23T09:30:59.524Z,27.6
2022-10-23T09:32:16.522Z,27.8
2022-10-23T09:33:33.485Z,28
2022-10-23T09:34:50.494Z,28.2
2022-10-23T09:36:07.530Z,28.1
2022-10-23T09:37:24.549Z,28
2022-10-23T09:38:41.523Z,27.9
2022-10-23T09:39:58.500Z,27.7
2022-10-23T09:41:15.497Z,27.5
2022-10-23T09:42:32.559Z,27.2
2022-10-23T09:43:49.513Z,27
2022-10-23T09:45:06.561Z,27.1
2022-10-23T09:46:23.630Z,27.5
2022-10-23T09:47:41.850Z,28
2022-10-23T09:48:59.873Z,28.7
2022-10-23T09:50:15.507Z,29.4
2022-10-23T09:51:32.559Z,29.8
2022-10-23T09:52:49.556Z,29.8
2022-10-23T09:54:06.562Z,29.5
2022-10-23T09:55:23.585Z,29.3
2022-10-23T09:56:40.583Z,28.9
2022-10-23T09:57:57.645Z,28.4
2022-10-23T09:59:14.581Z,27.9
2022-10-23T10:00:31.558Z,27.9
2022-10-23T10:01:48.624Z,28
2022-10-23T10:03:05.559Z,28.2
2022-10-23T10:04:22.599Z,28.3
2022-10-23T10:05:39.546Z,28.2
2022-10-23T10:06:56.547Z,27.7
2022-10-23T10:08:13.598Z,27.2
2022-10-23T10:09:30.571Z,26.8
2022-10-23T10:10:47.578Z,26.7
2022-10-23T10:12:04.570Z,27
2022-10-23T10:13:21.558Z,27.3
2022-10-23T10:14:38.590Z,27.7
2022-10-23T10:15:55.556Z,27.6
2022-10-23T10:17:12.563Z,27.1
2022-10-23T10:18:29.667Z,27.1
2022-10-23T10:19:46.646Z,27
2022-10-23T10:21:03.581Z,27.3
2022-10-23T10:22:20.571Z,27.7
2022-10-23T10:23:37.606Z,27.9
2022-10-23T10:24:54.603Z,27.9
2022-10-23T10:26:11.586Z,27.9
2022-10-23T10:27:28.623Z,27.7
2022-10-23T10:28:45.580Z,27.7
2022-10-23T10:30:03.187Z,27.8
2022-10-23T10:31:19.595Z,27.7
2022-10-23T10:32:36.640Z,27.7
2022-10-23T10:33:53.594Z,27.7
2022-10-23T10:35:10.550Z,28
2022-10-23T10:36:27.596Z,28.3
2022-10-23T10:37:44.982Z,28.5
2022-10-23T10:39:01.855Z,28.3
2022-10-23T10:40:18.616Z,27.9
2022-10-23T10:41:35.606Z,27.3
2022-10-23T10:42:52.649Z,26.6
2022-10-23T10:44:09.610Z,26.1
2022-10-23T10:45:26.617Z,25.7
2022-10-23T10:46:43.642Z,25.7
2022-10-23T10:48:00.719Z,25.8
2022-10-23T10:49:17.663Z,26.2
2022-10-23T10:50:34.621Z,26.6
2022-10-23T10:51:51.627Z,26.9
2022-10-23T10:53:08.646Z,27.2
2022-10-23T10:54:26.725Z,27.2
2022-10-23T10:55:43.639Z,27.1
2022-10-23T10:57:00.640Z,26.9
2022-10-23T10:58:17.635Z,26.8
2022-10-23T10:59:34.666Z,26.9
2022-10-23T11:00:51.699Z,26.9
2022-10-23T11:02:08.765Z,26.9
2022-10-23T11:03:25.961Z,27
2022-10-23T11:04:42.711Z,27.4
2022-10-23T11:07:16.685Z,28.2
2022-10-23T11:08:40.095Z,28.4
2022-10-23T11:09:50.890Z,28.4
2022-10-23T11:11:07.665Z,28.4
2022-10-23T11:12:24.848Z,28.1
2022-10-23T11:13:41.681Z,27.6
2022-10-23T11:14:58.665Z,27
2022-10-23T11:16:15.662Z,26.5
2022-10-23T11:17:32.729Z,26
2022-10-23T11:18:49.676Z,25.6
2022-10-23T11:20:06.680Z,25.3
2022-10-23T11:21:23.664Z,25.3
2022-10-23T11:22:40.855Z,25.4
2022-10-23T11:23:57.704Z,25.6
2022-10-23T11:25:14.727Z,25.9
2022-10-23T11:26:31.685Z,26.2
2022-10-23T11:27:48.698Z,26.5
2022-10-23T11:29:05.739Z,26.5
2022-10-23T11:30:22.702Z,26.7
2022-10-23T11:31:39.699Z,26.8
2022-10-23T11:32:56.725Z,26.8
2022-10-23T11:34:13.720Z,26.7
2022-10-23T11:35:30.991Z,26.5
2022-10-23T11:36:47.710Z,26.3
2022-10-23T11:38:04.711Z,26.1
2022-10-23T11:39:21.770Z,26.3
2022-10-23T11:40:38.798Z,26.6
2022-10-23T11:41:55.925Z,26.8
2022-10-23T11:43:12.756Z,27.1
2022-10-23T11:44:29.715Z,27.3
2022-10-23T11:45:46.726Z,27.3
2022-10-23T11:47:03.848Z,27.1
2022-10-23T11:48:20.838Z,26.8
2022-10-23T11:49:38.127Z,26.6
2022-10-23T11:50:54.722Z,26.3
2022-10-23T11:52:11.729Z,26
2022-10-23T11:53:28.842Z,26
2022-10-23T11:54:45.782Z,25.9
2022-10-23T11:56:02.817Z,26.1
2022-10-23T11:57:19.801Z,26.5
2022-10-23T11:58:36.778Z,26.8
2022-10-23T11:59:53.786Z,27.3
2022-10-23T12:01:10.872Z,27.6
2022-10-23T12:02:27.838Z,27.5
2022-10-23T12:03:44.769Z,27.5
2022-10-23T12:05:02.135Z,27.3
2022-10-23T12:06:18.781Z,27.1
2022-10-23T12:07:35.807Z,27
2022-10-23T12:08:52.795Z,27.2
2022-10-23T12:10:09.790Z,27.4
2022-10-23T12:11:27.511Z,27.3
2022-10-23T12:12:43.847Z,27
2022-10-23T12:14:00.823Z,26.9
2022-10-23T12:15:17.794Z,26.4
2022-10-23T12:16:34.782Z,26
2022-10-23T12:17:51.797Z,26
2022-10-23T12:19:08.936Z,26.1
2022-10-23T12:20:26.846Z,26.1
2022-10-23T12:21:43.830Z,26.1
2022-10-23T12:23:00.899Z,25.9
2022-10-23T12:24:17.783Z,25.8
2022-10-23T12:25:34.974Z,25.7
2022-10-23T12:26:51.874Z,25.6
2022-10-23T12:28:08.840Z,25.5
2022-10-23T12:29:25.846Z,25.5
2022-10-23T12:30:42.972Z,25.5
2022-10-23T12:31:59.806Z,25.5
2022-10-23T12:33:16.823Z,25.4
2022-10-23T12:34:33.841Z,25.3
2022-10-23T12:35:50.831Z,25.4
2022-10-23T12:37:07.815Z,25.3
2022-10-23T12:38:24.827Z,25.3
2022-10-23T12:39:41.810Z,25.3
2022-10-23T12:40:58.807Z,25.4
2022-10-23T12:42:16.798Z,25.6
2022-10-23T12:43:33.837Z,25.7
2022-10-23T12:44:50.817Z,25.9
2022-10-23T12:46:07.901Z,26
2022-10-23T12:47:24.851Z,26.2
2022-10-23T12:48:41.827Z,26.3
2022-10-23T12:49:58.825Z,26.5
2022-10-23T12:51:15.854Z,26.6
2022-10-23T12:52:32.842Z,26.7
2022-10-23T12:53:49.826Z,26.9
2022-10-23T12:55:06.830Z,27
2022-10-23T12:56:23.905Z,27.2
2022-10-23T12:57:41.011Z,27.2
2022-10-23T12:58:57.840Z,27.4
2022-10-23T13:00:14.865Z,27.5
2022-10-23T13:01:32.011Z,27.6
2022-10-23T13:02:48.842Z,27.3
2022-10-23T13:04:05.912Z,27.1
2022-10-23T13:05:22.944Z,27.2
2022-10-23T13:06:40.749Z,27.3
2022-10-23T13:07:57.860Z,27.2
2022-10-23T13:09:14.866Z,27.1
2022-10-23T13:10:31.884Z,27.2
2022-10-23T13:11:48.882Z,27.2
2022-10-23T13:13:05.917Z,27.2
2022-10-23T13:14:22.864Z,27.2
2022-10-23T13:15:39.885Z,27.1
2022-10-23T13:16:56.921Z,26.9
2022-10-23T13:18:13.866Z,26.5
2022-10-23T13:19:30.877Z,26.2
2022-10-23T13:20:47.916Z,26
2022-10-23T13:22:04.906Z,26
2022-10-23T13:23:21.893Z,25.9
2022-10-23T13:24:38.929Z,26
2022-10-23T13:25:55.934Z,26
2022-10-23T13:27:13.100Z,26.1
2022-10-23T13:28:29.968Z,26.2
2022-10-23T13:29:46.913Z,26.5
2022-10-23T13:31:03.907Z,26.7
2022-10-23T13:32:20.889Z,26.8
2022-10-23T13:33:37.950Z,26.8
2022-10-23T13:34:58.238Z,26.8
2022-10-23T13:36:11.912Z,26.8
2022-10-23T13:37:28.912Z,26.9
2022-10-23T13:38:46.143Z,27
2022-10-23T13:40:03.191Z,26.8
2022-10-23T13:41:19.913Z,26.4
2022-10-23T13:42:37.107Z,26.2
2022-10-23T13:43:53.959Z,25.9
2022-10-23T13:45:10.914Z,25.7
2022-10-23T13:46:27.969Z,25.5
2022-10-23T13:47:45.324Z,25.3
2022-10-23T13:49:03.544Z,25.2
2022-10-23T13:50:20.997Z,25.1
2022-10-23T13:51:38.876Z,25.2
2022-10-23T13:52:55.123Z,25.1
2022-10-23T13:54:12.424Z,25
2022-10-23T13:55:29.969Z,25
2022-10-23T13:56:47.460Z,25
2022-10-23T13:58:05.055Z,25.2
2022-10-23T13:59:22.396Z,25.3
2022-10-23T14:00:39.993Z,25.4
2022-10-23T14:01:57.700Z,25.3
2022-10-23T14:03:14.979Z,25.2
2022-10-23T14:04:32.311Z,25
2022-10-23T14:05:50.135Z,24.6
2022-10-23T14:07:07.412Z,24.3
2022-10-23T14:08:25.211Z,24.2
2022-10-23T14:09:42.181Z,24.1
2022-10-23T14:11:00.163Z,24.1
2022-10-23T14:12:17.328Z,24.1
2022-10-23T14:13:35.252Z,24.2
2022-10-23T14:14:54.243Z,24.2
2022-10-23T14:16:12.236Z,24.2
2022-10-23T14:17:31.532Z,24.2
2022-10-23T14:18:49.423Z,24.2
2022-10-23T14:20:07.392Z,24.2
2022-10-23T14:21:24.058Z,24.1
2022-10-23T14:22:41.268Z,24.1
2022-10-23T14:23:58.642Z,24
2022-10-23T14:25:16.057Z,24
2022-10-23T14:26:34.311Z,24.1
2022-10-23T14:27:51.185Z,24.1
2022-10-23T14:29:10.223Z,24.2
2022-10-23T14:30:25.367Z,24.1
2022-10-23T14:31:42.348Z,24.2
2022-10-23T14:33:00.630Z,24.2
2022-10-23T14:34:19.069Z,24.2
2022-10-23T14:35:36.536Z,24.1
2022-10-23T14:37:03.938Z,24.1
2022-10-23T14:38:11.021Z,24.2
2022-10-23T14:39:28.348Z,24.1
2022-10-23T14:40:45.077Z,24.1
2022-10-23T14:42:02.228Z,24
2022-10-23T14:43:19.029Z,24
2022-10-23T14:44:36.103Z,24
2022-10-23T14:45:53.181Z,23.9
2022-10-23T14:47:10.046Z,23.8
2022-10-23T14:48:27.209Z,23.8
2022-10-23T14:49:45.672Z,23.7
2022-10-23T14:51:03.267Z,23.6
2022-10-23T14:52:20.857Z,23.5
2022-10-23T14:53:38.534Z,23.5
2022-10-23T14:54:56.928Z,23.5
2022-10-23T14:56:14.099Z,23.5
2022-10-23T14:57:31.425Z,23.6
2022-10-23T14:58:48.128Z,23.7
2022-10-23T15:00:05.298Z,23.5
2022-10-23T15:01:22.302Z,23.3
2022-10-23T15:02:39.064Z,23.1
2022-10-23T15:03:56.126Z,22.8
2022-10-23T15:05:13.134Z,22.7
2022-10-23T15:06:30.428Z,22.5
2022-10-23T15:07:47.326Z,22.4
2022-10-23T15:09:05.245Z,22.3
2022-10-23T15:10:23.278Z,22.2
2022-10-23T15:11:40.356Z,22.1
2022-10-23T15:12:57.372Z,22
2022-10-23T15:14:15.999Z,22
2022-10-23T15:15:33.572Z,22
2022-10-23T15:16:51.869Z,22
2022-10-23T15:18:09.238Z,22
2022-10-23T15:19:26.371Z,22
2022-10-23T15:20:43.083Z,22.2
2022-10-23T15:22:00.114Z,22.1
2022-10-23T15:23:18.190Z,22.1
2022-10-23T15:24:35.160Z,22.1
2022-10-23T15:25:52.322Z,22.1
2022-10-23T15:28:27.816Z,22.1
2022-10-23T15:29:46.109Z,22.1
2022-10-23T15:31:04.073Z,22.1
2022-10-23T15:32:21.845Z,22.1
2022-10-23T15:33:39.660Z,22.1
2022-10-23T15:34:56.235Z,22.1
2022-10-23T15:36:13.883Z,22.1
2022-10-23T15:37:31.110Z,21.9
2022-10-23T15:38:48.333Z,21.8
2022-10-23T15:40:06.796Z,21.6
2022-10-23T15:41:24.327Z,21.5
2022-10-23T15:42:41.423Z,21.5
2022-10-23T15:43:58.477Z,21.4
2022-10-23T15:45:16.437Z,21.4
2022-10-23T15:46:33.321Z,21.4
2022-10-23T15:47:50.186Z,21.3
2022-10-23T15:49:07.702Z,21.2
2022-10-23T15:50:25.156Z,21.2
2022-10-23T15:51:42.514Z,21.1
2022-10-23T15:53:00.355Z,21.1
2022-10-23T15:54:18.503Z,21.1
2022-10-23T15:55:36.552Z,21.1
2022-10-23T15:56:54.850Z,21.2
2022-10-23T15:58:12.457Z,21.2
2022-10-23T15:59:30.142Z,21.3
2022-10-23T16:00:47.855Z,21.3
2022-10-23T16:02:06.438Z,21.3
2022-10-23T16:03:23.413Z,21.2
2022-10-23T16:04:40.461Z,21.2
2022-10-23T16:05:58.355Z,21.1
2022-10-23T16:07:15.298Z,21
2022-10-23T16:08:32.238Z,21.1
2022-10-23T16:09:50.209Z,21
2022-10-23T16:11:07.294Z,21
2022-10-23T16:12:24.205Z,21.1
2022-10-23T16:13:41.283Z,21.1
2022-10-23T16:14:58.178Z,21
2022-10-23T16:16:15.185Z,20.8
2022-10-23T16:17:32.910Z,20.7
2022-10-23T16:18:50.236Z,20.5
2022-10-23T16:20:07.368Z,20.4
2022-10-23T16:21:24.244Z,20.3
2022-10-23T16:22:42.786Z,20.2
2022-10-23T16:23:58.543Z,20.1
2022-10-23T16:25:16.445Z,20
2022-10-23T16:26:33.245Z,20
2022-10-23T16:27:50.303Z,19.9
2022-10-23T16:29:07.265Z,19.9
2022-10-23T16:30:24.277Z,19.9
2022-10-23T16:31:41.200Z,20
2022-10-23T16:32:58.452Z,20.1
2022-10-23T16:34:15.557Z,20.2
2022-10-23T16:35:32.218Z,20.3
2022-10-23T16:36:51.882Z,20.3
2022-10-23T16:38:09.224Z,20.4
2022-10-23T16:39:26.254Z,20.5
2022-10-23T16:40:43.289Z,20.5
2022-10-23T16:42:00.621Z,20.6
2022-10-23T16:43:18.192Z,20.5
2022-10-23T16:44:35.281Z,20.5
2022-10-23T16:45:52.380Z,20.4
2022-10-23T16:47:09.287Z,20.4
2022-10-23T16:48:26.219Z,20.3
2022-10-23T16:49:43.238Z,20.3
2022-10-23T16:51:00.411Z,20.2
2022-10-23T16:52:18.555Z,20.2
2022-10-23T16:53:35.286Z,20.3
2022-10-23T16:54:52.614Z,20.3
2022-10-23T16:56:09.294Z,20.2
2022-10-23T16:57:26.255Z,20.1
2022-10-23T16:58:43.676Z,20
2022-10-23T17:00:01.238Z,19.9
2022-10-23T17:01:18.798Z,19.8
2022-10-23T17:02:35.391Z,19.8
2022-10-23T17:03:53.565Z,19.7
2022-10-23T17:05:11.305Z,19.6
2022-10-23T17:06:28.330Z,19.6
2022-10-23T17:07:45.755Z,19.5
2022-10-23T17:09:02.701Z,19.3
2022-10-23T17:10:21.299Z,19.3
2022-10-23T17:11:38.478Z,19.3
2022-10-23T17:12:55.619Z,19.3
2022-10-23T17:14:13.785Z,19.2
2022-10-23T17:15:30.708Z,19.2
2022-10-23T17:16:48.104Z,19.2
2022-10-23T17:18:06.029Z,19.2
2022-10-23T17:20:40.863Z,19.2
2022-10-23T17:21:58.507Z,19.2
2022-10-23T17:23:15.540Z,19.1
2022-10-23T17:24:33.821Z,19
2022-10-23T17:25:51.485Z,19
2022-10-23T17:27:08.325Z,18.9
2022-10-23T17:28:25.338Z,18.9
2022-10-23T17:29:42.539Z,18.9
2022-10-23T17:31:00.496Z,19
2022-10-23T17:32:18.132Z,19
2022-10-23T17:33:35.494Z,19
2022-10-23T17:34:52.689Z,19.2
2022-10-23T17:36:09.362Z,19.3
2022-10-23T17:37:26.315Z,19.5
2022-10-23T17:38:44.942Z,19.6
2022-10-23T17:40:02.774Z,19.7
2022-10-23T17:41:19.549Z,19.9
2022-10-23T17:42:36.423Z,20
2022-10-23T17:43:53.501Z,20.1
2022-10-23T17:45:10.343Z,20.1
2022-10-23T17:46:27.922Z,20
2022-10-23T17:47:45.610Z,20
2022-10-23T17:49:03.388Z,20
2022-10-23T17:50:20.337Z,19.9
2022-10-23T17:51:37.396Z,19.8
2022-10-23T17:52:54.344Z,19.8
2022-10-23T17:54:11.322Z,19.6
2022-10-23T17:55:28.392Z,19.5
2022-10-23T17:56:45.635Z,19.4
2022-10-23T17:58:03.606Z,19.3
2022-10-23T17:59:20.596Z,19.3
2022-10-23T18:00:37.734Z,19.3
2022-10-23T18:01:56.291Z,19.1
2022-10-23T18:03:15.481Z,18.9
2022-10-23T18:04:30.564Z,18.9
2022-10-23T18:05:47.664Z,18.9
2022-10-23T18:07:04.448Z,18.9
2022-10-23T18:08:21.584Z,18.9
2022-10-23T18:09:38.368Z,18.8
2022-10-23T18:10:55.420Z,18.8
2022-10-23T18:12:12.400Z,18.8
2022-10-23T18:13:29.606Z,18.7
2022-10-23T18:14:46.405Z,18.6
2022-10-23T18:16:04.405Z,18.6
2022-10-23T18:17:21.417Z,18.6
2022-10-23T18:18:38.358Z,18.6
2022-10-23T18:19:58.425Z,18.7
2022-10-23T18:21:12.354Z,18.6
2022-10-23T18:22:29.422Z,18.7
2022-10-23T18:23:46.638Z,18.8
2022-10-23T18:25:03.547Z,18.9
2022-10-23T18:26:20.459Z,18.9
2022-10-23T18:27:37.373Z,18.8
2022-10-23T18:28:54.390Z,18.7
2022-10-23T18:30:11.465Z,18.6
2022-10-23T18:31:28.430Z,18.5
2022-10-23T18:32:45.603Z,18.4
2022-10-23T18:34:02.425Z,18.2
2022-10-23T18:35:19.387Z,18.2
2022-10-23T18:36:36.421Z,18.2
2022-10-23T18:37:53.472Z,18.2
2022-10-23T18:39:10.602Z,18.3
2022-10-23T18:40:28.042Z,18.5
2022-10-23T18:41:45.441Z,18.5
2022-10-23T18:43:02.442Z,18.4
2022-10-23T18:44:19.441Z,18.4
2022-10-23T18:45:36.547Z,18.5
2022-10-23T18:46:53.466Z,18.5
2022-10-23T18:48:10.405Z,18.6
2022-10-23T18:49:27.441Z,18.8
2022-10-23T18:50:44.407Z,18.9
2022-10-23T18:52:02.629Z,18.9
2022-10-23T18:53:19.507Z,19
2022-10-23T18:54:36.451Z,19.1
2022-10-23T18:55:53.417Z,19.1
2022-10-23T18:57:10.474Z,19.1
2022-10-23T18:58:27.449Z,19
2022-10-23T18:59:44.450Z,18.9
2022-10-23T19:01:01.516Z,18.8
2022-10-23T19:02:18.640Z,18.8
2022-10-23T19:03:35.458Z,18.7
2022-10-23T19:04:52.450Z,18.7
2022-10-23T19:06:09.428Z,18.6
2022-10-23T19:07:26.468Z,18.5
2022-10-23T19:08:43.643Z,18.4
2022-10-23T19:10:00.436Z,18.3
2022-10-23T19:11:17.456Z,18.3
2022-10-23T19:12:34.480Z,18.3
2022-10-23T19:13:52.142Z,18.3
2022-10-23T19:15:09.881Z,18.3
2022-10-23T19:16:27.781Z,18.2
2022-10-23T19:17:45.975Z,18.1
2022-10-23T19:19:08.451Z,18.1
2022-10-23T19:20:25.485Z,18.1
2022-10-23T19:21:42.630Z,18
2022-10-23T19:22:59.923Z,18
2022-10-23T19:24:17.574Z,18.1
2022-10-23T19:25:35.011Z,18
2022-10-23T19:26:52.485Z,17.8
2022-10-23T19:28:09.495Z,17.6
2022-10-23T19:29:26.562Z,17.5
2022-10-23T19:30:43.511Z,17.5
2022-10-23T19:32:00.628Z,17.4
2022-10-23T19:33:17.605Z,17.4
2022-10-23T19:34:34.474Z,17.3
2022-10-23T19:35:51.939Z,17.3
2022-10-23T19:37:08.565Z,17.3
2022-10-23T19:38:25.538Z,17.4
2022-10-23T19:39:42.960Z,17.4
2022-10-23T19:41:00.521Z,17.5
2022-10-23T19:42:17.514Z,17.6
2022-10-23T19:43:34.810Z,17.6
2022-10-23T19:44:51.494Z,17.6
2022-10-23T19:46:09.571Z,17.6
2022-10-23T19:47:25.807Z,17.7
2022-10-23T19:48:42.646Z,17.8
2022-10-23T19:49:59.542Z,18
2022-10-23T19:51:17.507Z,18.1
2022-10-23T19:52:34.589Z,18.2
2022-10-23T19:55:09.558Z,18.2
2022-10-23T19:56:26.505Z,18.2
2022-10-23T19:57:43.862Z,18.2
2022-10-23T19:59:00.599Z,18.2
2022-10-23T20:00:17.564Z,18.2
2022-10-23T20:01:34.654Z,18.1
2022-10-23T20:02:52.884Z,18
2022-10-23T20:04:08.555Z,17.9
2022-10-23T20:05:25.526Z,18
2022-10-23T20:06:42.512Z,18
2022-10-23T20:07:59.813Z,18.1
2022-10-23T20:09:16.542Z,18.1
2022-10-23T20:10:33.557Z,18.2
2022-10-23T20:11:50.546Z,18.2
2022-10-23T20:13:19.127Z,18.1
2022-10-23T20:14:24.529Z,18
2022-10-23T20:15:43.045Z,17.9
2022-10-23T20:16:59.561Z,17.9
2022-10-23T20:18:16.843Z,17.9
2022-10-23T20:19:33.711Z,18
2022-10-23T20:20:50.812Z,18.1
2022-10-23T20:22:07.629Z,18.1
2022-10-23T20:23:24.676Z,18.1
2022-10-23T20:24:43.876Z,18.1
2022-10-23T20:26:00.594Z,18.1
2022-10-23T20:27:17.589Z,18.1
2022-10-23T20:28:34.579Z,18
2022-10-23T20:29:52.639Z,18
2022-10-23T20:31:09.600Z,17.9
2022-10-23T20:32:26.568Z,17.9
2022-10-23T20:33:43.602Z,17.8
2022-10-23T20:35:00.773Z,17.8
2022-10-23T20:36:17.577Z,17.8
2022-10-23T20:37:34.570Z,17.9
2022-10-23T20:38:51.631Z,17.9
2022-10-23T20:40:08.570Z,17.9
2022-10-23T20:41:25.686Z,17.9
2022-10-23T20:42:42.631Z,18
2022-10-23T20:43:59.660Z,18.1
2022-10-23T20:45:17.606Z,18
2022-10-23T20:46:34.676Z,17.8
2022-10-23T20:47:52.016Z,17.8
2022-10-23T20:49:08.657Z,17.6
2022-10-23T20:50:25.597Z,17.5
2022-10-23T20:51:42.609Z,17.3
2022-10-23T20:52:59.612Z,17.2
2022-10-23T20:54:16.619Z,17.1
2022-10-23T20:55:33.636Z,16.9
2022-10-23T20:56:50.616Z,16.9
2022-10-23T20:58:07.691Z,16.8
2022-10-23T20:59:24.692Z,16.7
2022-10-23T21:00:41.673Z,16.7
2022-10-23T21:01:58.766Z,16.8
2022-10-23T21:03:15.655Z,16.9
2022-10-23T21:04:32.624Z,17
2022-10-23T21:05:49.723Z,17.2
2022-10-23T21:07:10.990Z,17.3
2022-10-23T21:08:23.651Z,17.4
2022-10-23T21:09:40.635Z,17.6
2022-10-23T21:10:57.767Z,17.7
2022-10-23T21:12:14.648Z,17.8
2022-10-23T21:13:32.040Z,17.8
2022-10-23T21:14:48.621Z,17.7
2022-10-23T21:16:05.688Z,17.6
2022-10-23T21:17:22.717Z,17.5
2022-10-23T21:18:46.810Z,17.4
2022-10-23T21:19:56.623Z,17.3
2022-10-23T21:21:13.629Z,17.3
2022-10-23T21:22:30.700Z,17.2
2022-10-23T21:23:47.651Z,17.1
2022-10-23T21:25:04.799Z,17.1
2022-10-23T21:26:21.969Z,17.1
2022-10-23T21:27:38.703Z,17
2022-10-23T21:29:13.653Z,17.1
2022-10-23T21:30:12.684Z,17.2
2022-10-23T21:31:29.658Z,17.2
2022-10-23T21:32:46.678Z,17.3
2022-10-23T21:34:03.755Z,17.3
2022-10-23T21:35:20.757Z,17.4
2022-10-23T21:36:48.422Z,17.5
2022-10-23T21:37:54.661Z,17.5
2022-10-23T21:39:11.697Z,17.4
2022-10-23T21:40:28.702Z,17.2
2022-10-23T21:41:46.169Z,17.1
2022-10-23T21:43:04.205Z,16.9
2022-10-23T21:44:21.719Z,16.7
2022-10-23T21:45:38.707Z,16.6
2022-10-23T21:46:55.710Z,16.5
2022-10-23T21:48:12.666Z,16.5
2022-10-23T21:49:29.693Z,16.5
2022-10-23T21:50:46.739Z,16.4
2022-10-23T21:52:03.702Z,16.5
2022-10-23T21:53:20.682Z,16.5
2022-10-23T21:54:37.859Z,16.5
2022-10-23T21:55:55.738Z,16.6
2022-10-23T21:57:12.704Z,16.7
2022-10-23T21:58:29.721Z,16.7
2022-10-23T21:59:46.720Z,16.6
2022-10-23T22:01:04.018Z,16.5
2022-10-23T22:02:20.783Z,16.5
2022-10-23T22:03:38.836Z,16.6
2022-10-23T22:04:55.730Z,16.8
2022-10-23T22:06:12.732Z,16.8
2022-10-23T22:07:30.162Z,16.8
2022-10-23T22:08:46.724Z,16.9
2022-10-23T22:10:03.855Z,16.9
2022-10-23T22:11:20.748Z,16.9
2022-10-23T22:12:37.757Z,16.9
2022-10-23T22:13:55.105Z,16.8
2022-10-23T22:15:11.737Z,16.8
2022-10-23T22:16:28.721Z,16.8
2022-10-23T22:17:46.068Z,16.8
2022-10-23T22:19:02.737Z,16.8
2022-10-23T22:20:20.162Z,16.8
2022-10-23T22:21:37.735Z,16.8
2022-10-23T22:22:54.748Z,16.8
2022-10-23T22:24:11.760Z,16.8
2022-10-23T22:25:28.886Z,16.8
2022-10-23T22:26:46.099Z,16.9
2022-10-23T22:28:02.781Z,16.9
2022-10-23T22:29:19.910Z,16.9
2022-10-23T22:30:36.864Z,17
2022-10-23T22:31:53.734Z,17
2022-10-23T22:33:10.800Z,16.9
2022-10-23T22:34:48.206Z,16.7
2022-10-23T22:35:44.741Z,16.7
2022-10-23T22:37:01.747Z,16.7
2022-10-23T22:38:18.822Z,16.5
2022-10-23T22:39:35.752Z,16.4
2022-10-23T22:40:52.750Z,16.2
2022-10-23T22:42:09.758Z,16.2
2022-10-23T22:43:26.886Z,16.1
2022-10-23T22:44:43.782Z,16.1
2022-10-23T22:46:00.804Z,16.1
2022-10-23T22:47:17.763Z,16
2022-10-23T22:48:34.790Z,15.9
2022-10-23T22:49:51.790Z,15.9
2022-10-23T22:51:09.025Z,15.9
2022-10-23T22:52:25.836Z,15.9
2022-10-23T22:53:42.781Z,15.9
2022-10-23T22:54:59.791Z,16.1
2022-10-23T22:56:16.778Z,16.2
2022-10-23T22:57:33.803Z,16.3
2022-10-23T22:58:50.788Z,16.3
2022-10-23T23:00:07.879Z,16.4
2022-10-23T23:01:24.871Z,16.5
2022-10-23T23:02:41.786Z,16.6
2022-10-23T23:04:04.306Z,16.7
2022-10-23T23:05:15.804Z,16.6
2022-10-23T23:06:32.822Z,16.6
2022-10-23T23:07:49.840Z,16.7
2022-10-23T23:09:06.789Z,16.6
2022-10-23T23:10:23.787Z,16.7
2022-10-23T23:11:45.800Z,16.7
2022-10-23T23:12:57.788Z,16.7
2022-10-23T23:14:15.753Z,16.7
2022-10-23T23:15:31.846Z,16.6
2022-10-23T23:16:48.848Z,16.6
2022-10-23T23:18:05.832Z,16.5
2022-10-23T23:19:22.813Z,16.5
2022-10-23T23:20:39.818Z,16.5
2022-10-23T23:21:56.867Z,16.5
2022-10-23T23:23:13.816Z,16.6
2022-10-23T23:24:30.832Z,16.6
2022-10-23T23:25:47.907Z,16.6
2022-10-23T23:27:04.859Z,16.7
2022-10-23T23:28:21.850Z,16.7
2022-10-23T23:29:38.829Z,16.7
2022-10-23T23:30:55.856Z,16.6
2022-10-23T23:32:12.895Z,16.5
2022-10-23T23:33:29.837Z,16.4
2022-10-23T23:34:46.835Z,16.3
2022-10-23T23:36:03.843Z,16.2
2022-10-23T23:37:20.896Z,16.2
2022-10-23T23:38:37.845Z,16.2
2022-10-23T23:39:54.834Z,16.3
2022-10-23T23:41:11.837Z,16.2
2022-10-23T23:42:28.880Z,16.2
2022-10-23T23:43:45.862Z,16.2
2022-10-23T23:45:13.786Z,16.3
2022-10-23T23:46:19.866Z,16.4
2022-10-23T23:47:36.880Z,16.4
2022-10-23T23:48:53.844Z,16.3
2022-10-23T23:50:10.846Z,16.2
2022-10-23T23:51:27.849Z,16.1
2022-10-23T23:52:44.894Z,16
2022-10-23T23:54:01.852Z,16
2022-10-23T23:55:19.262Z,16
2022-10-23T23:56:35.871Z,15.9
2022-10-23T23:57:52.861Z,15.9
2022-10-23T23:59:09.877Z,16
